Bookmark and Share
Track history (hours):
 

Venus Seven

Last reported at 2014-Apr-23 08:31 UTC. Time now 2014-Apr-23 09:15 UTC.
Position N 34°38' E 135°25'.

Length 93 m; draft 6.1 m.

Type: Cargo ship. MMSI: 353405000.

NotesDate/timePositionNaut miles runAvg speedWind from/ knotsBaromVisibWave heightAir tempDewpointWater temp
2014-Apr-23 08:31N 34°38' E 135°25'0 0.0
2014-Apr-23 07:25N 34°38' E 135°25'0 0.0
2014-Apr-23 06:25N 34°38' E 135°25'0 0.0
2014-Apr-23 05:25N 34°38' E 135°25'0 0.0
2014-Apr-23 04:25N 34°38' E 135°25'0 0.0
2014-Apr-23 03:31N 34°38' E 135°25'0 0.0
2014-Apr-23 02:31N 34°38' E 135°25'0 0.0
2014-Apr-23 01:31N 34°38' E 135°25'0 0.0
2014-Apr-23 00:31N 34°38' E 135°25'0 0.0
2014-Apr-22 23:31N 34°38' E 135°25'0 0.0
2014-Apr-22 22:31N 34°38' E 135°25'0 0.0
2014-Apr-22 21:25N 34°38' E 135°25'0 0.0
2014-Apr-22 20:31N 34°38' E 135°25'0 0.0
2014-Apr-22 19:25N 34°38' E 135°25'0 0.0
2014-Apr-22 18:31N 34°38' E 135°25'0 0.0
2014-Apr-22 17:31N 34°38' E 135°25'0 0.0
2014-Apr-22 16:31N 34°38' E 135°25'0 0.0
2014-Apr-22 15:31N 34°38' E 135°25'0 0.0
2014-Apr-22 14:31N 34°38' E 135°25'0 0.0
2014-Apr-22 13:31N 34°38' E 135°25'0 0.0
2014-Apr-22 12:31N 34°38' E 135°25'0 0.0
2014-Apr-22 11:31N 34°38' E 135°25'0 0.0
2014-Apr-22 10:18N 34°38' E 135°25'0 0.0
2014-Apr-22 09:30N 34°38' E 135°25'0 0.0
2014-Apr-22 08:30N 34°38' E 135°25'0 0.0
2014-Apr-22 07:24N 34°38' E 135°25'0 0.0
2014-Apr-22 06:30N 34°38' E 135°25'0 0.0
2014-Apr-22 05:24N 34°38' E 135°25'0 0.0
2014-Apr-22 04:18N 34°38' E 135°25'0 0.0
2014-Apr-22 03:24N 34°38' E 135°25'0 0.0
2014-Apr-22 02:30N 34°38' E 135°25'0 0.0
2014-Apr-22 01:24N 34°38' E 135°25'0 0.0
2014-Apr-22 00:30N 34°38' E 135°25'0 0.0
2014-Apr-21 23:30N 34°38' E 135°25'0 0.0
2014-Apr-21 22:30N 34°38' E 135°25'2 2.6
2014-Apr-21 21:33N 34°37' E 135°22'1 0.6
2014-Apr-21 20:17N 34°37' E 135°21'0 0.0
2014-Apr-21 19:29N 34°37' E 135°21'0 0.0
2014-Apr-21 18:29N 34°37' E 135°21'0 0.0
2014-Apr-21 17:23N 34°37' E 135°21'0 0.0
2014-Apr-21 16:29N 34°37' E 135°21'0 0.0
2014-Apr-21 15:17N 34°37' E 135°21'0 0.0
2014-Apr-21 14:31N 34°37' E 135°21'1111.7
2014-Apr-21 13:34N 34°35' E 135°08'1212.0
2014-Apr-21 12:33N 34°35' E 134°53'  
2014-Apr-16 07:31N 24°15' E 120°28'0 0.0
2014-Apr-16 06:31N 24°15' E 120°28'0 0.0
2014-Apr-16 05:22N 24°15' E 120°28'90 6.0
2014-Apr-15 14:22N 22°48' E 120°04'11 6.1
2014-Apr-15 12:34N 22°38' E 120°11'1010.2
2014-Apr-15 11:34N 22°33' E 120°20'0 0.0
2014-Apr-14 22:33N 22°33' E 120°20'4 2.1
2014-Apr-14 20:32N 22°37' E 120°17'0 0.0
2014-Apr-14 19:32N 22°37' E 120°17'0 0.0
2014-Apr-14 18:32N 22°37' E 120°17'0 0.0
2014-Apr-14 17:32N 22°37' E 120°17'0 0.0
2014-Apr-14 16:32N 22°37' E 120°17'0 0.0
2014-Apr-14 15:32N 22°37' E 120°17'0 0.0
2014-Apr-14 14:32N 22°37' E 120°17'0 0.0
2014-Apr-14 13:32N 22°37' E 120°17'0 0.0
2014-Apr-14 11:31N 22°37' E 120°17'0 0.0
2014-Apr-14 10:31N 22°37' E 120°17'0 0.0
2014-Apr-14 08:31N 22°37' E 120°17'0 0.0
2014-Apr-14 07:31N 22°37' E 120°17'0 0.0
2014-Apr-14 06:31N 22°37' E 120°17'0 0.0
2014-Apr-14 05:31N 22°37' E 120°17'3 0.4
2014-Apr-13 22:33N 22°37' E 120°14'0 0.1
2014-Apr-13 21:30N 22°37' E 120°14'0 0.0
2014-Apr-13 20:30N 22°37' E 120°14'0 0.0
2014-Apr-13 19:30N 22°37' E 120°14'0 0.0
2014-Apr-13 18:30N 22°37' E 120°14'0 0.0
2014-Apr-13 17:30N 22°37' E 120°14'0 0.0
2014-Apr-13 16:24N 22°37' E 120°14'0 0.0
2014-Apr-13 15:30N 22°37' E 120°14'0 0.1
2014-Apr-13 14:30N 22°37' E 120°15'0 0.1
2014-Apr-13 13:30N 22°37' E 120°14'0 0.1
2014-Apr-13 12:30N 22°37' E 120°15'0 0.1
2014-Apr-13 11:30N 22°37' E 120°14'0 0.1
2014-Apr-13 10:30N 22°37' E 120°15'0 0.0
2014-Apr-13 09:30N 22°37' E 120°15'  

Dump ship's entire track history

sailing weather and tide predictions

Venus Seven — H9RN — position and weather